Time;durP1;ratioP1;P1;durP2;ratioP2;P2;SDS_P1;SDS_P2;PMS_P1;PMS_P2;Temp;Humidity;BMP_temperature;BMP_pressure;BME280_temperature;BME280_humidity;BME280_pressure;Samples;Min_cycle;Max_cycle;Signal;HPM_P1;HPM_P2
2023/05/10 00:01:09;;;;;;;2.07;0.80;;;15.50;99.90;;;;;;5074066;28;20450;-80
2023/05/10 00:03:36;;;;;;;3.93;0.70;;;15.40;99.90;;;;;;5073141;28;20472;-80
2023/05/10 00:06:03;;;;;;;1.70;0.77;;;15.10;99.90;;;;;;5071890;28;20805;-81
2023/05/10 00:08:31;;;;;;;1.30;0.50;;;15.20;99.90;;;;;;5071746;28;20990;-81
2023/05/10 00:11:00;;;;;;;1.70;0.73;;;15.30;99.90;;;;;;5072986;28;20537;-81
2023/05/10 00:13:26;;;;;;;1.97;0.70;;;15.00;99.90;;;;;;5072781;28;20472;-80
2023/05/10 00:15:54;;;;;;;1.30;0.73;;;15.00;99.90;;;;;;5072428;28;20530;-80
2023/05/10 00:18:20;;;;;;;1.70;0.80;;;15.20;99.90;;;;;;5072485;28;20476;-81
2023/05/10 00:20:48;;;;;;;2.17;0.90;;;15.50;99.90;;;;;;5072764;28;20476;-81
2023/05/10 00:23:15;;;;;;;1.60;0.60;;;15.40;99.90;;;;;;5072557;28;20477;-81
2023/05/10 00:25:42;;;;;;;1.77;0.90;;;15.60;99.90;;;;;;5072362;28;20539;-80
2023/05/10 00:28:10;;;;;;;1.20;0.63;;;15.70;99.90;;;;;;5072058;28;20497;-80
2023/05/10 00:30:37;;;;;;;1.30;0.80;;;15.60;99.90;;;;;;5072083;28;20476;-80
2023/05/10 00:33:04;;;;;;;1.10;0.83;;;15.70;99.90;;;;;;5072240;28;20471;-80
2023/05/10 00:35:31;;;;;;;1.83;0.87;;;15.70;99.90;;;;;;5072706;28;20492;-80
2023/05/10 00:37:58;;;;;;;1.97;0.73;;;15.70;99.90;;;;;;5072435;28;20552;-80
2023/05/10 00:40:25;;;;;;;1.20;0.70;;;15.60;99.90;;;;;;5070292;28;20502;-81
2023/05/10 00:42:52;;;;;;;2.50;0.60;;;15.70;99.90;;;;;;5071306;28;20563;-81
2023/05/10 00:45:20;;;;;;;1.23;0.60;;;15.60;99.90;;;;;;5055819;28;20453;-81
2023/05/10 00:47:47;;;;;;;1.20;0.60;;;15.70;99.90;;;;;;5072595;28;20576;-81
2023/05/10 00:50:15;;;;;;;1.40;0.60;;;15.60;99.90;;;;;;5071885;28;20526;-80
2023/05/10 00:52:43;;;;;;;1.47;0.87;;;15.30;99.90;;;;;;5071437;28;20517;-80
2023/05/10 00:55:11;;;;;;;1.63;0.63;;;15.40;99.90;;;;;;5072431;28;20540;-81
2023/05/10 00:57:39;;;;;;;1.60;0.60;;;15.50;99.90;;;;;;5072277;28;20886;-80
2023/05/10 01:00:07;;;;;;;1.83;0.67;;;15.60;99.90;;;;;;5071697;28;20530;-80
2023/05/10 01:02:36;;;;;;;1.30;0.80;;;15.70;99.90;;;;;;5072065;28;21160;-81
2023/05/10 01:05:05;;;;;;;1.20;0.70;;;15.70;99.90;;;;;;5071886;28;20532;-81
2023/05/10 01:07:31;;;;;;;1.37;0.73;;;15.50;99.90;;;;;;5071392;28;21000;-81
2023/05/10 01:09:58;;;;;;;3.00;0.90;;;15.40;99.90;;;;;;5071217;28;21224;-80
2023/05/10 01:12:26;;;;;;;2.70;1.03;;;15.40;99.90;;;;;;5071624;28;20441;-80
2023/05/10 01:14:53;;;;;;;1.60;0.60;;;15.50;99.90;;;;;;5071812;28;20443;-80
2023/05/10 01:17:20;;;;;;;1.50;1.10;;;15.60;99.90;;;;;;5071879;28;20556;-81
2023/05/10 01:19:49;;;;;;;1.00;0.60;;;15.60;99.90;;;;;;5071119;28;20453;-81
2023/05/10 01:22:37;;;;;;;1.20;0.80;;;15.50;99.90;;;;;;5071699;28;20451;-80
2023/05/10 01:25:37;;;;;;;1.23;0.77;;;15.50;99.90;;;;;;5051879;28;20535;-80
2023/05/10 01:28:39;;;;;;;3.10;0.90;;;15.40;99.90;;;;;;5062951;28;20550;-80
2023/05/10 01:31:40;;;;;;;2.30;1.00;;;15.40;99.90;;;;;;5074226;28;20949;-81
2023/05/10 01:34:10;;;;;;;1.13;0.73;;;15.30;99.90;;;;;;5071474;28;21117;-80
2023/05/10 01:36:44;;;;;;;1.17;0.80;;;15.40;99.90;;;;;;5072202;28;20486;-80
2023/05/10 01:39:18;;;;;;;1.53;1.10;;;15.50;99.90;;;;;;5071463;28;20452;-80
2023/05/10 01:41:52;;;;;;;1.30;0.90;;;15.30;99.90;;;;;;5071190;28;20541;-80
2023/05/10 01:44:35;;;;;;;1.83;1.07;;;15.30;99.90;;;;;;5106330;22;20491;-57
2023/05/10 01:47:08;;;;;;;2.50;1.10;;;14.90;99.90;;;;;;5111906;28;20448;-57
2023/05/10 01:49:42;;;;;;;2.00;0.97;;;15.00;99.90;;;;;;5111141;28;20549;-56
2023/05/10 01:52:12;;;;;;;1.37;1.00;;;15.10;99.90;;;;;;5110543;28;20443;-58
2023/05/10 01:54:43;;;;;;;1.93;1.40;;;15.20;99.90;;;;;;5110247;28;20432;-59
2023/05/10 01:57:12;;;;;;;1.30;0.90;;;15.10;99.90;;;;;;5109922;28;20520;-57
2023/05/10 01:59:41;;;;;;;1.80;1.40;;;15.00;99.90;;;;;;5110806;28;20462;-56
2023/05/10 02:02:11;;;;;;;1.60;1.07;;;15.00;99.90;;;;;;5111443;28;20454;-57
2023/05/10 02:04:41;;;;;;;1.40;1.10;;;15.20;99.90;;;;;;5111527;28;20485;-56
2023/05/10 02:07:10;;;;;;;1.90;1.20;;;15.20;99.90;;;;;;5111660;28;20476;-56
2023/05/10 02:09:39;;;;;;;1.93;1.33;;;15.10;99.90;;;;;;5111267;28;20550;-56
2023/05/10 02:12:08;;;;;;;1.80;1.20;;;15.10;99.90;;;;;;5111431;28;20527;-56
2023/05/10 02:14:37;;;;;;;2.87;1.70;;;15.00;99.90;;;;;;5111313;28;20443;-57
2023/05/10 02:17:06;;;;;;;2.00;1.70;;;15.10;99.90;;;;;;5110776;28;20439;-58
2023/05/10 02:19:35;;;;;;;4.57;2.10;;;15.20;99.90;;;;;;5110898;28;20551;-56
2023/05/10 02:22:04;;;;;;;3.10;1.90;;;15.20;99.90;;;;;;5111338;28;20480;-58
2023/05/10 02:24:34;;;;;;;2.10;1.50;;;15.20;99.90;;;;;;5110774;28;20566;-57
2023/05/10 02:27:03;;;;;;;2.53;1.83;;;15.20;99.90;;;;;;5109058;28;20432;-56
2023/05/10 02:29:32;;;;;;;2.20;1.53;;;15.20;99.90;;;;;;5110403;28;20908;-56
2023/05/10 02:32:00;;;;;;;3.57;2.40;;;15.20;99.90;;;;;;5111159;28;20486;-57
2023/05/10 02:34:29;;;;;;;4.53;2.30;;;15.10;99.90;;;;;;5110961;28;20522;-56
2023/05/10 02:36:57;;;;;;;3.00;2.37;;;15.10;99.90;;;;;;5104174;28;20471;-57
2023/05/10 02:39:28;;;;;;;3.53;2.27;;;15.10;99.90;;;;;;5110126;28;20545;-57
2023/05/10 02:41:56;;;;;;;4.93;2.67;;;15.00;99.90;;;;;;5111156;28;20495;-57
2023/05/10 02:44:24;;;;;;;3.03;2.67;;;15.10;99.90;;;;;;5110631;28;20839;-56
2023/05/10 02:46:51;;;;;;;3.93;3.03;;;15.10;99.90;;;;;;5110532;28;21080;-57
2023/05/10 02:49:19;;;;;;;2.40;2.03;;;15.20;99.90;;;;;;5112694;28;20510;-56
2023/05/10 02:51:52;;;;;;;2.00;1.80;;;15.10;99.90;;;;;;5113061;28;20881;-57
2023/05/10 02:54:22;;;;;;;3.33;2.43;;;15.00;99.90;;;;;;5113967;28;20472;-57
2023/05/10 02:56:57;;;;;;;3.50;3.17;;;14.80;99.90;;;;;;5114146;28;20521;-58
2023/05/10 02:59:24;;;;;;;2.63;2.43;;;14.40;99.90;;;;;;5114194;28;20547;-58
2023/05/10 03:01:51;;;;;;;2.33;2.13;;;14.60;99.90;;;;;;5115047;28;20523;-56
2023/05/10 03:04:18;;;;;;;2.57;1.80;;;14.50;99.90;;;;;;5114782;28;21052;-58
2023/05/10 03:06:45;;;;;;;3.13;2.30;;;14.50;99.90;;;;;;5115017;28;20474;-57
2023/05/10 03:09:15;;;;;;;8.60;2.60;;;14.60;99.90;;;;;;5114181;28;20918;-58
2023/05/10 03:11:51;;;;;;;3.20;2.57;;;14.60;99.90;;;;;;5114595;28;20846;-57
2023/05/10 03:14:28;;;;;;;5.47;2.70;;;14.50;99.90;;;;;;5113950;28;20442;-57
2023/05/10 03:17:01;;;;;;;4.37;3.43;;;14.00;99.90;;;;;;5114589;28;20539;-56
2023/05/10 03:19:33;;;;;;;3.73;3.10;;;14.20;99.90;;;;;;5114199;28;20495;-56
2023/05/10 03:22:04;;;;;;;3.90;3.33;;;14.40;99.90;;;;;;5094548;28;20946;-56
2023/05/10 03:24:33;;;;;;;3.50;3.20;;;14.40;99.90;;;;;;5101907;28;20515;-57
2023/05/10 03:27:02;;;;;;;3.20;2.83;;;14.30;99.90;;;;;;5113653;28;21015;-57
2023/05/10 03:29:32;;;;;;;4.07;3.20;;;14.30;99.90;;;;;;5108788;28;20470;-56
2023/05/10 03:32:00;;;;;;;3.47;3.00;;;14.10;99.90;;;;;;5093808;28;20938;-56
2023/05/10 03:34:27;;;;;;;3.73;3.10;;;14.30;99.90;;;;;;5110153;28;20446;-57
2023/05/10 03:36:54;;;;;;;3.70;2.80;;;14.30;99.90;;;;;;5113909;28;20522;-57
2023/05/10 03:39:21;;;;;;;4.03;3.03;;;14.50;99.90;;;;;;5113875;28;20538;-57
2023/05/10 03:41:48;;;;;;;3.20;2.90;;;14.50;99.90;;;;;;5113673;28;20529;-57
2023/05/10 03:44:15;;;;;;;3.27;2.97;;;14.50;99.90;;;;;;5113482;28;20502;-56
2023/05/10 03:46:43;;;;;;;3.20;2.90;;;14.30;99.90;;;;;;5113643;28;20530;-57
2023/05/10 03:49:10;;;;;;;2.97;2.40;;;14.40;99.90;;;;;;5113969;28;20506;-56
2023/05/10 03:51:37;;;;;;;3.47;2.33;;;14.60;99.90;;;;;;5113350;28;20523;-56
2023/05/10 03:54:04;;;;;;;2.90;2.57;;;14.50;99.90;;;;;;5112393;28;20475;-59
2023/05/10 03:56:31;;;;;;;3.33;3.03;;;14.50;99.90;;;;;;5113691;28;20522;-58
2023/05/10 03:58:58;;;;;;;3.80;2.20;;;14.60;99.90;;;;;;5112321;28;20546;-57
2023/05/10 04:01:25;;;;;;;4.93;2.77;;;14.40;99.90;;;;;;5100867;28;20475;-58
2023/05/10 04:03:53;;;;;;;4.40;3.10;;;14.50;99.90;;;;;;5093685;28;20484;-57
2023/05/10 04:06:20;;;;;;;3.40;3.10;;;14.40;99.90;;;;;;5093534;28;20969;-56
2023/05/10 04:08:47;;;;;;;3.30;3.00;;;14.40;99.90;;;;;;5096466;28;20545;-57
2023/05/10 04:11:14;;;;;;;4.10;3.70;;;14.40;99.90;;;;;;5112871;28;20546;-57
2023/05/10 04:13:41;;;;;;;3.40;3.10;;;14.40;99.90;;;;;;5113345;28;20474;-57
2023/05/10 04:16:07;;;;;;;4.00;3.60;;;14.30;99.90;;;;;;5113245;28;20451;-56
2023/05/10 04:18:35;;;;;;;3.50;3.20;;;14.40;99.90;;;;;;5113180;28;20547;-56
2023/05/10 04:21:03;;;;;;;3.43;3.03;;;14.40;99.90;;;;;;5112793;28;20444;-58
2023/05/10 04:23:30;;;;;;;3.30;2.90;;;14.50;99.90;;;;;;5112612;28;20915;-58
2023/05/10 04:26:01;;;;;;;4.00;2.80;;;14.40;99.90;;;;;;5112709;28;20468;-57
2023/05/10 04:28:28;;;;;;;3.03;2.73;;;14.40;99.90;;;;;;5113184;28;20550;-57
2023/05/10 04:31:02;;;;;;;3.43;2.43;;;14.20;99.90;;;;;;5110506;28;20534;-57
2023/05/10 04:33:29;;;;;;;3.90;2.70;;;14.20;99.90;;;;;;5113882;28;20445;-56
2023/05/10 04:35:56;;;;;;;3.67;2.90;;;14.40;99.90;;;;;;5112932;28;20533;-57
2023/05/10 04:38:24;;;;;;;3.43;2.60;;;14.50;99.90;;;;;;5112728;28;20551;-56
2023/05/10 04:40:51;;;;;;;3.20;2.90;;;14.50;99.90;;;;;;5112591;28;20574;-57
2023/05/10 04:43:18;;;;;;;3.37;2.63;;;14.40;99.90;;;;;;5112907;28;20478;-56
2023/05/10 04:45:45;;;;;;;2.90;2.60;;;14.10;99.90;;;;;;5112413;28;20472;-56
2023/05/10 04:48:12;;;;;;;5.07;3.83;;;13.80;99.90;;;;;;5112799;28;20542;-57
2023/05/10 04:50:39;;;;;;;3.33;2.67;;;13.60;99.90;;;;;;5111951;28;20549;-58
2023/05/10 04:53:06;;;;;;;3.20;2.90;;;13.70;99.90;;;;;;5111089;28;20530;-56
2023/05/10 04:55:35;;;;;;;4.20;3.60;;;13.90;99.90;;;;;;5112564;28;20645;-57
2023/05/10 04:58:02;;;;;;;4.10;3.70;;;14.00;99.90;;;;;;5112743;28;20542;-57
2023/05/10 05:00:29;;;;;;;4.03;3.63;;;14.00;99.90;;;;;;5109283;28;20530;-57
2023/05/10 05:02:56;;;;;;;5.90;4.10;;;14.20;99.90;;;;;;5108700;28;20983;-56
2023/05/10 05:05:23;;;;;;;4.00;3.43;;;14.30;99.90;;;;;;5112238;28;20502;-56
2023/05/10 05:07:50;;;;;;;4.70;4.17;;;14.30;99.90;;;;;;5096564;28;20513;-56
2023/05/10 05:10:17;;;;;;;3.80;3.40;;;14.10;99.90;;;;;;5099108;28;20469;-57
2023/05/10 05:12:45;;;;;;;4.10;3.70;;;14.10;99.90;;;;;;5111637;28;20533;-57
2023/05/10 05:15:12;;;;;;;5.13;3.67;;;14.10;99.90;;;;;;5111609;28;20514;-57
2023/05/10 05:17:39;;;;;;;4.20;3.43;;;14.20;99.90;;;;;;5111476;28;20870;-57
2023/05/10 05:20:07;;;;;;;4.37;3.57;;;14.20;99.90;;;;;;5111773;28;20523;-58
2023/05/10 05:22:34;;;;;;;6.70;4.50;;;14.30;99.90;;;;;;5111946;28;20449;-56
2023/05/10 05:25:02;;;;;;;4.60;4.20;;;14.30;99.90;;;;;;5111938;28;21068;-57
2023/05/10 05:27:29;;;;;;;4.40;4.00;;;14.30;99.90;;;;;;5111246;28;20447;-58
2023/05/10 05:29:58;;;;;;;7.37;6.60;;;14.50;99.90;;;;;;5106889;28;20530;-57
2023/05/10 05:32:25;;;;;;;3.77;3.47;;;14.50;99.90;;;;;;5109967;28;20523;-58
2023/05/10 05:34:52;;;;;;;5.10;4.07;;;14.30;99.90;;;;;;5110228;28;20857;-56
2023/05/10 05:37:21;;;;;;;7.27;4.33;;;14.40;99.90;;;;;;5110138;28;20625;-57
2023/05/10 05:39:48;;;;;;;4.70;4.20;;;14.20;99.90;;;;;;5110103;28;20509;-57
2023/05/10 05:42:16;;;;;;;5.27;4.23;;;14.10;99.90;;;;;;5105639;28;20523;-57
2023/05/10 05:44:43;;;;;;;4.60;4.13;;;14.20;99.90;;;;;;5106952;28;20784;-56
2023/05/10 05:47:11;;;;;;;5.37;4.33;;;14.20;99.90;;;;;;5103644;28;20525;-56
2023/05/10 05:49:39;;;;;;;4.37;3.33;;;14.40;99.90;;;;;;5092066;28;20488;-56
2023/05/10 05:52:06;;;;;;;6.10;3.97;;;14.40;99.90;;;;;;5106327;28;20445;-59
2023/05/10 05:54:33;;;;;;;4.20;3.33;;;14.50;99.90;;;;;;5091128;28;21003;-56
2023/05/10 05:57:00;;;;;;;4.37;3.37;;;14.50;99.90;;;;;;5110853;28;20952;-57
2023/05/10 05:59:27;;;;;;;4.73;3.80;;;14.60;99.90;;;;;;5109319;28;20460;-56
2023/05/10 06:01:54;;;;;;;6.17;4.17;;;14.50;99.90;;;;;;5107633;28;20436;-57
2023/05/10 06:04:22;;;;;;;5.50;4.20;;;14.50;99.90;;;;;;5110548;28;21245;-56
2023/05/10 06:06:49;;;;;;;5.00;3.90;;;14.60;99.90;;;;;;5110347;28;20526;-57
2023/05/10 06:09:16;;;;;;;4.50;3.00;;;14.60;99.90;;;;;;5110103;28;21051;-58
2023/05/10 06:11:43;;;;;;;3.83;2.70;;;14.60;99.90;;;;;;5109942;28;20478;-57
2023/05/10 06:14:10;;;;;;;2.50;2.30;;;14.60;99.90;;;;;;5110040;28;20464;-57
2023/05/10 06:16:37;;;;;;;1.93;1.53;;;14.60;99.90;;;;;;5109650;28;20930;-56
2023/05/10 06:19:04;;;;;;;2.63;1.57;;;14.50;99.90;;;;;;5110582;28;20501;-56
2023/05/10 06:21:32;;;;;;;1.47;0.87;;;14.40;99.90;;;;;;5110312;28;20462;-58
2023/05/10 06:23:59;;;;;;;5.23;1.40;;;14.40;99.90;;;;;;5113747;28;21066;-57
2023/05/10 06:26:26;;;;;;;2.97;0.80;;;14.50;99.90;;;;;;5114600;28;20470;-57
2023/05/10 06:28:53;;;;;;;1.90;1.10;;;14.40;99.90;;;;;;5113925;28;21003;-57
2023/05/10 06:31:20;;;;;;;1.70;1.23;;;14.40;99.90;;;;;;5114471;28;20489;-57
2023/05/10 06:33:46;;;;;;;1.70;1.30;;;14.30;99.90;;;;;;5114634;28;20517;-56
2023/05/10 06:36:14;;;;;;;2.20;1.60;;;14.20;99.90;;;;;;5113708;28;20530;-56
2023/05/10 06:38:42;;;;;;;2.90;1.57;;;14.30;99.90;;;;;;5114544;28;20817;-56
2023/05/10 06:41:09;;;;;;;7.00;4.90;;;14.30;99.90;;;;;;5112898;28;20477;-56
2023/05/10 06:43:39;;;;;;;4.80;3.20;;;14.20;99.90;;;;;;5113984;28;20482;-56
2023/05/10 06:46:06;;;;;;;2.63;2.07;;;14.20;99.90;;;;;;5113424;28;20531;-59
2023/05/10 06:48:33;;;;;;;1.90;1.47;;;14.00;99.90;;;;;;5109544;28;20533;-58
2023/05/10 06:51:00;;;;;;;4.43;1.50;;;14.00;99.90;;;;;;5112859;28;20446;-58
2023/05/10 06:53:27;;;;;;;2.43;1.00;;;13.90;99.90;;;;;;5098983;28;20531;-57
2023/05/10 06:55:55;;;;;;;5.00;1.10;;;13.90;99.90;;;;;;5114199;28;20457;-56
2023/05/10 06:58:22;;;;;;;4.13;2.13;;;13.90;99.90;;;;;;5114122;28;20545;-57
2023/05/10 07:00:49;;;;;;;3.87;1.70;;;14.00;99.90;;;;;;5103486;28;20435;-57
2023/05/10 07:03:16;;;;;;;2.03;1.67;;;14.00;99.90;;;;;;5109444;28;20618;-57
2023/05/10 07:05:43;;;;;;;2.00;1.00;;;14.10;99.90;;;;;;5112621;28;20466;-57
2023/05/10 07:08:10;;;;;;;1.23;0.90;;;14.20;99.90;;;;;;5113948;28;20459;-57
2023/05/10 07:10:37;;;;;;;1.00;0.60;;;14.10;99.90;;;;;;5113158;28;20539;-56
2023/05/10 07:13:05;;;;;;;1.20;0.63;;;14.10;99.90;;;;;;5112680;28;20533;-56
2023/05/10 07:15:33;;;;;;;1.70;0.70;;;14.00;99.90;;;;;;5113969;28;20449;-56
2023/05/10 07:18:00;;;;;;;1.53;0.70;;;14.00;99.90;;;;;;5113584;28;20462;-57
2023/05/10 07:20:27;;;;;;;1.30;0.60;;;14.00;99.90;;;;;;5113451;28;20845;-57
2023/05/10 07:22:54;;;;;;;1.87;0.97;;;14.00;99.90;;;;;;5112509;28;20477;-56
2023/05/10 07:25:20;;;;;;;3.70;1.90;;;14.10;99.90;;;;;;5106823;28;20562;-57
2023/05/10 07:27:48;;;;;;;3.80;1.60;;;14.10;99.90;;;;;;5108176;28;20496;-56
2023/05/10 07:30:16;;;;;;;1.50;1.07;;;14.20;99.90;;;;;;5113589;27;20869;-56
2023/05/10 07:32:43;;;;;;;3.30;1.83;;;14.30;99.90;;;;;;5112701;28;20459;-56
2023/05/10 07:35:10;;;;;;;2.23;1.30;;;14.00;99.90;;;;;;5112656;28;20520;-57
2023/05/10 07:37:37;;;;;;;1.30;0.90;;;14.00;99.90;;;;;;5112983;28;20467;-56
2023/05/10 07:40:04;;;;;;;2.87;1.13;;;14.00;99.90;;;;;;5113016;28;20438;-56
2023/05/10 07:42:31;;;;;;;4.43;1.67;;;14.00;99.90;;;;;;5094242;28;20539;-56
2023/05/10 07:44:58;;;;;;;1.83;1.23;;;14.10;99.90;;;;;;5112966;28;20551;-57
2023/05/10 07:47:26;;;;;;;2.97;1.67;;;14.20;99.90;;;;;;5108713;28;20860;-57
2023/05/10 07:49:53;;;;;;;1.60;1.30;;;14.30;99.90;;;;;;5112773;28;20522;-57
2023/05/10 07:52:20;;;;;;;2.23;1.03;;;14.20;99.90;;;;;;5112110;28;20527;-57
2023/05/10 07:54:47;;;;;;;1.43;0.90;;;14.10;99.90;;;;;;5112082;28;20955;-56
2023/05/10 07:57:17;;;;;;;1.70;1.10;;;14.20;99.90;;;;;;5113325;28;20468;-56
2023/05/10 07:59:45;;;;;;;1.67;1.10;;;14.30;99.90;;;;;;5111947;28;20467;-56
2023/05/10 08:02:11;;;;;;;2.50;0.93;;;14.20;99.90;;;;;;5094017;28;20444;-57
2023/05/10 08:04:40;;;;;;;1.80;0.90;;;14.10;99.90;;;;;;5108964;28;20498;-56
2023/05/10 08:07:07;;;;;;;1.77;1.10;;;14.10;99.90;;;;;;5108220;28;20442;-57
2023/05/10 08:09:33;;;;;;;2.60;1.13;;;14.30;99.90;;;;;;5112857;28;20461;-56
2023/05/10 08:12:00;;;;;;;1.07;0.70;;;14.30;99.90;;;;;;5108342;28;20470;-56
2023/05/10 08:14:29;;;;;;;1.00;0.63;;;14.00;99.90;;;;;;5111250;28;21002;-56
2023/05/10 08:16:56;;;;;;;1.00;0.70;;;14.10;99.90;;;;;;5113478;28;20438;-57
2023/05/10 08:19:23;;;;;;;1.40;0.90;;;14.10;99.90;;;;;;5102998;28;20550;-57
2023/05/10 08:21:53;;;;;;;2.03;1.17;;;14.00;99.90;;;;;;5107204;28;20513;-57
2023/05/10 08:24:20;;;;;;;1.20;0.80;;;13.60;99.90;;;;;;5109451;28;20443;-57
2023/05/10 08:26:47;;;;;;;1.70;1.13;;;13.70;99.90;;;;;;5105530;28;20525;-56
2023/05/10 08:29:14;;;;;;;1.90;1.00;;;13.90;99.90;;;;;;5110395;28;20516;-57
2023/05/10 08:31:41;;;;;;;3.93;0.90;;;14.00;99.90;;;;;;5108110;28;20537;-58
2023/05/10 08:34:08;;;;;;;1.90;0.87;;;14.00;99.90;;;;;;5110726;28;20531;-57
2023/05/10 08:36:35;;;;;;;1.50;1.00;;;14.10;99.90;;;;;;5107482;28;20464;-56
2023/05/10 08:39:04;;;;;;;2.03;0.93;;;14.10;99.90;;;;;;5101066;28;20521;-56
2023/05/10 08:41:34;;;;;;;1.50;0.87;;;14.10;99.90;;;;;;5103551;28;20475;-56
2023/05/10 08:44:04;;;;;;;1.70;1.10;;;14.10;99.90;;;;;;5109729;28;20530;-56
2023/05/10 08:46:34;;;;;;;1.80;1.27;;;14.00;99.90;;;;;;5095959;28;20565;-56
2023/05/10 08:49:05;;;;;;;1.63;1.17;;;13.90;99.90;;;;;;5102683;28;20554;-56
2023/05/10 08:51:37;;;;;;;1.53;1.03;;;14.10;99.90;;;;;;5112094;28;20446;-57
2023/05/10 08:54:06;;;;;;;1.40;0.73;;;14.20;99.90;;;;;;5109486;28;20468;-56
2023/05/10 08:56:33;;;;;;;2.67;0.97;;;14.10;99.90;;;;;;5096015;28;20436;-56
2023/05/10 08:59:00;;;;;;;1.40;0.93;;;14.10;99.90;;;;;;5105793;28;20574;-56
2023/05/10 09:01:28;;;;;;;2.03;1.00;;;14.20;99.90;;;;;;5102277;28;20523;-56
2023/05/10 09:03:55;;;;;;;2.07;1.77;;;14.20;99.90;;;;;;5109529;28;20442;-56
2023/05/10 09:06:23;;;;;;;1.90;1.50;;;14.30;99.90;;;;;;5109849;28;20475;-57
2023/05/10 09:08:50;;;;;;;2.37;1.50;;;14.30;99.90;;;;;;5103292;28;20471;-57
2023/05/10 09:11:18;;;;;;;2.03;1.70;;;14.50;99.90;;;;;;5108742;27;20526;-57
2023/05/10 09:13:46;;;;;;;1.60;1.50;;;14.50;99.90;;;;;;5112003;28;20797;-57
2023/05/10 09:16:13;;;;;;;1.93;1.17;;;14.50;99.90;;;;;;5112151;28;20996;-56
2023/05/10 09:18:40;;;;;;;3.20;1.23;;;14.60;99.90;;;;;;5112183;28;20458;-56
2023/05/10 09:21:07;;;;;;;1.27;1.10;;;14.60;99.90;;;;;;5110313;28;20733;-56
2023/05/10 09:23:34;;;;;;;7.53;5.37;;;14.50;99.90;;;;;;5111607;28;20525;-57
2023/05/10 09:26:04;;;;;;;5.53;2.40;;;14.40;99.90;;;;;;5112062;28;20988;-56
2023/05/10 09:28:34;;;;;;;2.00;1.10;;;14.40;99.90;;;;;;5111510;28;20459;-56
2023/05/10 09:31:01;;;;;;;1.80;1.00;;;14.50;99.90;;;;;;5112128;28;20463;-56
2023/05/10 09:33:28;;;;;;;2.20;1.13;;;14.40;99.90;;;;;;5111622;27;20444;-57
2023/05/10 09:35:55;;;;;;;1.63;1.10;;;14.40;99.90;;;;;;5112120;28;20528;-57
2023/05/10 09:38:22;;;;;;;1.43;0.63;;;14.40;99.90;;;;;;5112645;28;20549;-56
2023/05/10 09:40:55;;;;;;;2.07;0.90;;;14.50;99.90;;;;;;5112048;28;20450;-59
2023/05/10 09:43:22;;;;;;;1.47;0.87;;;14.40;99.90;;;;;;5111729;28;20459;-58
2023/05/10 09:45:50;;;;;;;4.70;1.20;;;14.30;99.90;;;;;;5111784;28;20525;-57
2023/05/10 09:48:17;;;;;;;1.43;1.00;;;14.40;99.90;;;;;;5111669;28;20930;-57
2023/05/10 09:50:44;;;;;;;1.73;1.13;;;14.40;99.90;;;;;;5111687;28;20528;-57
2023/05/10 09:53:16;;;;;;;1.10;0.60;;;14.40;99.90;;;;;;5111374;28;20516;-57
2023/05/10 09:55:45;;;;;;;0.97;0.47;;;14.40;99.90;;;;;;5111741;28;20488;-57
2023/05/10 09:58:12;;;;;;;1.47;0.50;;;14.40;99.90;;;;;;5111332;28;20470;-57
2023/05/10 10:00:41;;;;;;;1.30;0.50;;;14.30;99.90;;;;;;5110924;28;20920;-58
2023/05/10 10:03:14;;;;;;;1.40;0.60;;;14.10;99.90;;;;;;5111242;28;20525;-57
2023/05/10 10:05:43;;;;;;;3.00;0.70;;;14.10;99.90;;;;;;5110349;28;20467;-58
2023/05/10 10:08:10;;;;;;;1.37;0.50;;;13.70;99.90;;;;;;5111331;28;20830;-57
2023/05/10 10:10:38;;;;;;;1.00;0.57;;;13.70;99.90;;;;;;5111398;28;20450;-58
2023/05/10 10:13:05;;;;;;;1.67;0.50;;;13.60;99.90;;;;;;5109484;28;20445;-57
2023/05/10 10:15:33;;;;;;;2.37;1.03;;;13.60;99.90;;;;;;5101011;28;20444;-58
2023/05/10 10:18:01;;;;;;;1.10;0.70;;;13.80;99.90;;;;;;5099220;28;20537;-57
2023/05/10 10:20:29;;;;;;;1.03;0.57;;;13.80;99.90;;;;;;5100725;28;20510;-58
2023/05/10 10:22:56;;;;;;;1.87;1.00;;;13.80;99.90;;;;;;5101507;28;20435;-57
2023/05/10 10:25:23;;;;;;;3.00;0.97;;;13.90;99.90;;;;;;5100410;28;20476;-57
2023/05/10 10:28:03;;;;;;;2.57;1.20;;;14.00;99.90;;;;;;5099393;28;20558;-57
2023/05/10 10:30:37;;;;;;;1.30;0.63;;;14.00;99.90;;;;;;5101167;28;20519;-59
2023/05/10 10:33:34;;;;;;;1.10;0.60;;;14.10;99.90;;;;;;5100894;28;20525;-57
2023/05/10 10:36:04;;;;;;;1.10;0.60;;;14.30;99.90;;;;;;5100078;28;20460;-57
2023/05/10 10:38:39;;;;;;;1.30;0.67;;;14.20;99.90;;;;;;5091292;28;20460;-58
2023/05/10 10:41:11;;;;;;;1.80;0.93;;;14.20;99.90;;;;;;5090244;28;20447;-57
2023/05/10 10:43:39;;;;;;;1.60;0.73;;;14.10;99.90;;;;;;5097045;28;20457;-57
2023/05/10 10:46:14;;;;;;;1.10;0.77;;;13.90;99.90;;;;;;5110827;28;20506;-57
2023/05/10 10:48:41;;;;;;;1.60;0.90;;;14.10;99.90;;;;;;5110912;28;20470;-57
2023/05/10 10:51:09;;;;;;;1.70;0.70;;;14.20;99.90;;;;;;5110889;28;20526;-57
2023/05/10 10:53:39;;;;;;;1.30;0.80;;;14.10;99.90;;;;;;5103214;28;20501;-57
2023/05/10 10:56:09;;;;;;;1.40;0.73;;;14.20;99.90;;;;;;5090421;28;20447;-57
2023/05/10 10:58:36;;;;;;;1.20;0.70;;;14.20;99.90;;;;;;5090764;28;20469;-58
2023/05/10 11:01:15;;;;;;;1.27;0.80;;;14.40;99.90;;;;;;5090725;28;20534;-57
2023/05/10 11:04:02;;;;;;;1.00;0.60;;;14.20;99.90;;;;;;5107558;28;20522;-58
2023/05/10 11:06:35;;;;;;;1.20;0.83;;;14.40;99.90;;;;;;5110767;28;20864;-55
2023/05/10 11:09:07;;;;;;;2.03;0.83;;;14.50;99.90;;;;;;5111151;28;20911;-58
2023/05/10 11:11:35;;;;;;;1.70;1.00;;;14.60;99.90;;;;;;5114558;28;20498;-58
2023/05/10 11:14:04;;;;;;;1.30;0.83;;;14.60;99.90;;;;;;5114011;28;20519;-57
2023/05/10 11:16:42;;;;;;;1.50;0.90;;;14.70;99.90;;;;;;5114199;28;20520;-58
2023/05/10 11:19:10;;;;;;;1.30;0.83;;;14.70;99.90;;;;;;5114678;28;20549;-57
2023/05/10 11:21:48;;;;;;;1.40;1.00;;;14.50;99.90;;;;;;5113795;28;20443;-57
2023/05/10 11:24:16;;;;;;;4.20;0.87;;;14.40;99.90;;;;;;5114184;28;20446;-57
2023/05/10 11:26:43;;;;;;;1.13;0.67;;;14.40;99.90;;;;;;5114837;28;20562;-57
2023/05/10 11:29:11;;;;;;;1.20;0.70;;;14.60;99.90;;;;;;5113792;28;20490;-55
2023/05/10 11:31:44;;;;;;;1.20;0.90;;;14.60;99.90;;;;;;5114235;28;20471;-57
2023/05/10 11:34:12;;;;;;;1.40;0.80;;;14.40;99.90;;;;;;5114352;28;20476;-57
2023/05/10 11:36:39;;;;;;;1.40;0.90;;;14.50;99.90;;;;;;5114833;28;20431;-57
2023/05/10 11:39:07;;;;;;;2.63;1.00;;;14.60;99.90;;;;;;5114498;28;20459;-55
2023/05/10 11:41:35;;;;;;;1.20;0.80;;;14.60;99.90;;;;;;5114232;28;20536;-55
2023/05/10 11:44:03;;;;;;;1.80;0.93;;;14.60;99.90;;;;;;5113536;28;20849;-55
2023/05/10 11:46:30;;;;;;;1.17;0.73;;;14.20;99.90;;;;;;5114107;28;20506;-56
2023/05/10 11:49:01;;;;;;;2.33;0.90;;;14.00;99.90;;;;;;5114278;28;20497;-55
2023/05/10 11:51:28;;;;;;;1.93;0.83;;;13.80;99.90;;;;;;5114095;28;20890;-56
2023/05/10 11:53:57;;;;;;;2.23;1.20;;;13.70;99.90;;;;;;5113621;28;20530;-55
2023/05/10 11:56:26;;;;;;;1.30;0.90;;;13.80;99.90;;;;;;5113785;28;20475;-55
2023/05/10 11:58:55;;;;;;;2.13;1.20;;;13.90;99.90;;;;;;5114222;28;20463;-56
2023/05/10 12:01:23;;;;;;;5.80;1.27;;;13.90;99.90;;;;;;5113770;28;20443;-55
2023/05/10 12:03:51;;;;;;;1.30;0.80;;;13.90;99.90;;;;;;5113966;28;20453;-55
2023/05/10 12:06:19;;;;;;;1.60;1.20;;;14.00;99.90;;;;;;5113823;28;20498;-55
2023/05/10 12:08:47;;;;;;;2.60;0.80;;;14.10;99.90;;;;;;5114148;28;20541;-55
2023/05/10 12:11:15;;;;;;;1.20;0.70;;;14.10;99.90;;;;;;5113422;28;20522;-55
2023/05/10 12:13:46;;;;;;;1.50;1.03;;;14.20;99.90;;;;;;5113535;28;20496;-55
2023/05/10 12:16:17;;;;;;;1.33;0.80;;;14.00;99.90;;;;;;5113353;28;20777;-55
2023/05/10 12:18:44;;;;;;;1.67;0.90;;;13.80;99.90;;;;;;5113592;28;20501;-55
2023/05/10 12:21:12;;;;;;;1.47;0.80;;;13.60;99.90;;;;;;5113306;28;20467;-55
2023/05/10 12:23:39;;;;;;;1.40;0.87;;;13.70;99.90;;;;;;5113092;28;20983;-56
2023/05/10 12:26:07;;;;;;;1.80;0.90;;;13.80;99.90;;;;;;5113257;28;20563;-55
2023/05/10 12:28:35;;;;;;;1.30;0.70;;;13.80;99.90;;;;;;5112523;28;20558;-56
2023/05/10 12:31:04;;;;;;;1.90;1.00;;;14.00;99.90;;;;;;5112883;28;20443;-57
2023/05/10 12:33:38;;;;;;;1.20;0.80;;;14.20;99.90;;;;;;5112750;28;20444;-57
2023/05/10 12:36:06;;;;;;;1.40;0.93;;;14.30;99.90;;;;;;5113414;28;20442;-58
2023/05/10 12:38:34;;;;;;;1.67;0.90;;;14.40;99.90;;;;;;5113271;28;20497;-57
2023/05/10 12:41:03;;;;;;;1.67;0.80;;;14.40;99.90;;;;;;5113029;28;20485;-57
2023/05/10 12:43:30;;;;;;;1.83;0.70;;;14.50;99.90;;;;;;5112682;28;20485;-57
2023/05/10 12:45:57;;;;;;;1.10;0.67;;;14.40;99.90;;;;;;5112646;28;20559;-57
2023/05/10 12:48:28;;;;;;;1.30;0.87;;;14.50;99.90;;;;;;5112860;28;20545;-57
2023/05/10 12:50:55;;;;;;;1.60;1.00;;;14.50;99.90;;;;;;5113011;28;20443;-58
2023/05/10 12:53:22;;;;;;;1.10;0.80;;;14.50;99.90;;;;;;5112858;28;20459;-57
2023/05/10 12:55:49;;;;;;;1.27;0.80;;;14.60;99.90;;;;;;5112782;28;20946;-57